Elizabeth, Arkansas
Current Conditions -  °F | °C
As of 10:53 AM on Monday 24 Nov 2014 (Local Time) from KBPK Reporting Station
Clear Clear  
Wind Chill: 45°   Ceiling: Unl
Heat Index: 48°   Visibility: 10mi
Dew Point: 28°   Wind: 7mph
Humidity: 46%   Direction: NA
Pressure: 29.82"   Gusts: 23mph
Location:  36.33°N, 92.1°W
Report Text: KBPK 241653Z AUTO VRB06G20KT 10SM CLR 09/M02 A2982 RMK AO2 SLP096 T00891022
Loading
Personal Weather Stations






























Interactive Weather Map New forecast layout! Learn more

10-Day Weather Forecast

Advertisements
Track Severe Weather on mobile